Thursday, July 18, 2019, 9:28 AM EDT
Back to Local

KMTP, Montauk Airport

Location: Montauk, NY, United States Lat: 41.067
Local Time: 9:28 AM EDT (13:28 GMT) Lon: -71.917
Time Zone: US/Eastern Elev: 6 ft

Show me the last for .
Show Coded

Time T Td Feel RH Dir Speed Gust Alt SLP Vis Weather Sky Remarks
2019-07-18 08:54 73 72 77 96 180° 3 - 29.95 29.94 0 None
2019-07-18 07:54 73 72 77 96 - Calm - 29.94 29.94 0 1-hr Precip Total: 0.02"
6-hr Precip Total (8am): 0.19"
24-hr Precip Total (8am): 0.62"
6-hr Min Temp (8am): 71.1°F
6-hr Max Temp (8am): 73.0°F
2019-07-18 06:54 72 70 76 93 - Calm - 29.94 29.93 0 1-hr Precip Total: 0.09"
2019-07-18 05:54 72 71 77 97 - Calm - 29.94 29.93 0 1-hr Precip Total: 0.03"
2019-07-18 04:54 72 70 76 93 Variable 5 - 29.93 29.93 0 1-hr Precip Total: 0.05"
6-hr Precip Total (5am): 0.05"
2019-07-18 03:54 72 70 76 93 Variable 3 - 29.91 29.90 0 None
2019-07-18 02:54 71 69 76 93 210° 3 - 29.90 29.90 0 None
2019-07-18 01:54 72 70 76 93 170° 3 - 29.89 29.89 0 6-hr Precip Total (2am): 0.43"
6-hr Min Temp (2am): 71.1°F
6-hr Max Temp (2am): 79.0°F
2019-07-18 00:54 72 70 76 93 - Calm - 29.91 29.90 0 1-hr Precip Total: 0.05"
24-hr Min Temp (1am): 71.1°F
24-hr Max Temp (1am): 84.9°F
2019-07-17 23:54 72 70 76 93 Variable 3 - 29.92 29.92 0 Pressure falling rapidly
1-hr Precip Total: 0.37"
2019-07-17 22:54 75 73 79 93 290° 5 - 29.93 29.93 0 1-hr Precip Total: 0.01"
6-hr Precip Total (11pm): 0.01"
2019-07-17 21:54 77 74 82 90 - Calm - 29.94 29.94 0 None
2019-07-17 20:54 76 73 80 90 70° 3 - 29.92 29.91 0 None
2019-07-17 19:54 78 75 84 90 Variable 6 - 29.91 29.90 0 6-hr Min Temp (8pm): 77.0°F
6-hr Max Temp (8pm): 84.0°F
2019-07-17 18:54 78 75 84 90 230° 7 - 29.90 29.90 0 None
2019-07-17 17:54 77 75 83 93 220° 8 - 29.88 29.88 0 None
2019-07-17 16:54 79 75 85 87 210° 6 - 29.89 29.88 0 None
2019-07-17 15:54 79 74 84 84 210° 7 - 29.90 29.90 0 None
2019-07-17 14:54 79 74 84 84 210° 8 - 29.93 29.93 0 None
2019-07-17 13:54 84 75 92 74 210° 7 - 29.93 29.93 0 6-hr Min Temp (2pm): 75.9°F
6-hr Max Temp (2pm): 84.9°F
2019-07-17 12:54 84 75 92 74 210° 8 - 29.95 29.95 0 None
2019-07-17 11:54 84 75 92 74 210° 5 - 29.97 29.96 0 None
2019-07-17 10:54 81 74 87 79 210° 7 - 29.97 29.97 0 None
2019-07-17 09:54 81 75 88 82 220° 8 - 29.98 29.98 0 None

Support USWX by starting your Amazon purchase here.